sensor_id;sensor_type;location;lat;lon;timestamp;temperature;humidity
66568;DHT22;53422;49.296;6.900;2023-04-15T00:00:40;8.30;99.90
66568;DHT22;53422;49.296;6.900;2023-04-15T00:03:06;8.30;99.90
66568;DHT22;53422;49.296;6.900;2023-04-15T00:05:33;8.40;99.90
66568;DHT22;53422;49.296;6.900;2023-04-15T00:07:59;8.30;99.90
66568;DHT22;53422;49.296;6.900;2023-04-15T00:10:26;8.30;99.90
66568;DHT22;53422;49.296;6.900;2023-04-15T00:12:52;8.30;99.90
66568;DHT22;53422;49.296;6.900;2023-04-15T00:15:18;8.30;99.90
66568;DHT22;53422;49.296;6.900;2023-04-15T00:17:44;8.30;99.90
66568;DHT22;53422;49.296;6.900;2023-04-15T00:20:10;8.30;99.90
66568;DHT22;53422;49.296;6.900;2023-04-15T00:22:36;8.30;99.90
66568;DHT22;53422;49.296;6.900;2023-04-15T00:25:02;8.20;99.90
66568;DHT22;53422;49.296;6.900;2023-04-15T00:27:28;8.20;99.90
66568;DHT22;53422;49.296;6.900;2023-04-15T00:29:54;8.10;99.90
66568;DHT22;53422;49.296;6.900;2023-04-15T00:32:20;8.10;99.90
66568;DHT22;53422;49.296;6.900;2023-04-15T00:34:46;8.10;99.90
66568;DHT22;53422;49.296;6.900;2023-04-15T00:37:12;8.20;99.90
66568;DHT22;53422;49.296;6.900;2023-04-15T00:39:38;8.10;99.90
66568;DHT22;53422;49.296;6.900;2023-04-15T00:42:04;8.20;99.90
66568;DHT22;53422;49.296;6.900;2023-04-15T00:44:30;8.10;99.90
66568;DHT22;53422;49.296;6.900;2023-04-15T00:46:56;8.10;99.90
66568;DHT22;53422;49.296;6.900;2023-04-15T00:49:22;8.10;99.90
66568;DHT22;53422;49.296;6.900;2023-04-15T00:51:48;8.10;99.90
66568;DHT22;53422;49.296;6.900;2023-04-15T00:54:14;8.10;99.90
66568;DHT22;53422;49.296;6.900;2023-04-15T00:56:41;8.10;99.90
66568;DHT22;53422;49.296;6.900;2023-04-15T00:59:07;8.10;99.90
66568;DHT22;53422;49.296;6.900;2023-04-15T01:01:34;8.10;99.90
66568;DHT22;53422;49.296;6.900;2023-04-15T01:04:01;8.10;99.90
66568;DHT22;53422;49.296;6.900;2023-04-15T01:06:27;8.10;99.90
66568;DHT22;53422;49.296;6.900;2023-04-15T01:08:54;8.10;99.90
66568;DHT22;53422;49.296;6.900;2023-04-15T01:11:20;8.10;99.90
66568;DHT22;53422;49.296;6.900;2023-04-15T01:13:46;8.10;99.90
66568;DHT22;53422;49.296;6.900;2023-04-15T01:16:13;8.00;99.90
66568;DHT22;53422;49.296;6.900;2023-04-15T01:18:39;8.00;99.90
66568;DHT22;53422;49.296;6.900;2023-04-15T01:21:05;8.00;99.90
66568;DHT22;53422;49.296;6.900;2023-04-15T01:23:33;8.00;99.90
66568;DHT22;53422;49.296;6.900;2023-04-15T01:26:01;8.00;99.90
66568;DHT22;53422;49.296;6.900;2023-04-15T01:28:28;8.00;99.90
66568;DHT22;53422;49.296;6.900;2023-04-15T01:31:11;8.00;99.90
66568;DHT22;53422;49.296;6.900;2023-04-15T01:33:38;8.00;99.90
66568;DHT22;53422;49.296;6.900;2023-04-15T01:36:05;8.00;99.90
66568;DHT22;53422;49.296;6.900;2023-04-15T01:38:33;8.00;99.90
66568;DHT22;53422;49.296;6.900;2023-04-15T01:40:59;8.00;99.90
66568;DHT22;53422;49.296;6.900;2023-04-15T01:43:25;8.00;99.90
66568;DHT22;53422;49.296;6.900;2023-04-15T01:45:51;8.00;99.90
66568;DHT22;53422;49.296;6.900;2023-04-15T01:48:17;8.00;99.90
66568;DHT22;53422;49.296;6.900;2023-04-15T01:50:43;8.00;99.90
66568;DHT22;53422;49.296;6.900;2023-04-15T01:53:09;8.00;99.90
66568;DHT22;53422;49.296;6.900;2023-04-15T01:55:35;8.00;99.90
66568;DHT22;53422;49.296;6.900;2023-04-15T01:58:01;8.00;99.90
66568;DHT22;53422;49.296;6.900;2023-04-15T02:00:27;8.00;99.90
66568;DHT22;53422;49.296;6.900;2023-04-15T02:02:53;8.00;99.90
66568;DHT22;53422;49.296;6.900;2023-04-15T02:05:18;8.00;99.90
66568;DHT22;53422;49.296;6.900;2023-04-15T02:07:44;8.00;99.90
66568;DHT22;53422;49.296;6.900;2023-04-15T02:10:10;8.00;99.90
66568;DHT22;53422;49.296;6.900;2023-04-15T02:12:38;8.00;99.90
66568;DHT22;53422;49.296;6.900;2023-04-15T02:15:04;8.00;99.90
66568;DHT22;53422;49.296;6.900;2023-04-15T02:17:33;8.00;99.90
66568;DHT22;53422;49.296;6.900;2023-04-15T02:20:00;8.00;99.90
66568;DHT22;53422;49.296;6.900;2023-04-15T02:22:26;7.90;99.90
66568;DHT22;53422;49.296;6.900;2023-04-15T02:24:52;7.90;99.90
66568;DHT22;53422;49.296;6.900;2023-04-15T02:27:18;7.90;99.90
66568;DHT22;53422;49.296;6.900;2023-04-15T02:29:44;7.90;99.90
66568;DHT22;53422;49.296;6.900;2023-04-15T02:32:10;7.90;99.90
66568;DHT22;53422;49.296;6.900;2023-04-15T02:34:37;7.90;99.90
66568;DHT22;53422;49.296;6.900;2023-04-15T02:37:06;7.90;99.90
66568;DHT22;53422;49.296;6.900;2023-04-15T02:39:32;7.90;99.90
66568;DHT22;53422;49.296;6.900;2023-04-15T02:41:58;7.90;99.90
66568;DHT22;53422;49.296;6.900;2023-04-15T02:44:25;7.80;99.90
66568;DHT22;53422;49.296;6.900;2023-04-15T02:46:52;7.80;99.90
66568;DHT22;53422;49.296;6.900;2023-04-15T02:49:19;7.80;99.90
66568;DHT22;53422;49.296;6.900;2023-04-15T02:51:45;7.80;99.90
66568;DHT22;53422;49.296;6.900;2023-04-15T02:54:21;7.80;99.90
66568;DHT22;53422;49.296;6.900;2023-04-15T02:56:50;7.80;99.90
66568;DHT22;53422;49.296;6.900;2023-04-15T02:59:19;7.80;99.90
66568;DHT22;53422;49.296;6.900;2023-04-15T03:01:45;7.80;99.90
66568;DHT22;53422;49.296;6.900;2023-04-15T03:04:10;7.80;99.90
66568;DHT22;53422;49.296;6.900;2023-04-15T03:06:36;7.80;99.90
66568;DHT22;53422;49.296;6.900;2023-04-15T03:09:02;7.80;99.90
66568;DHT22;53422;49.296;6.900;2023-04-15T03:11:31;7.70;99.90
66568;DHT22;53422;49.296;6.900;2023-04-15T03:13:58;7.80;99.90
66568;DHT22;53422;49.296;6.900;2023-04-15T03:16:24;7.70;99.90
66568;DHT22;53422;49.296;6.900;2023-04-15T03:18:50;7.70;99.90
66568;DHT22;53422;49.296;6.900;2023-04-15T03:21:16;7.70;99.90
66568;DHT22;53422;49.296;6.900;2023-04-15T03:23:41;7.70;99.90
66568;DHT22;53422;49.296;6.900;2023-04-15T03:26:07;7.70;99.90
66568;DHT22;53422;49.296;6.900;2023-04-15T03:28:32;7.70;99.90
66568;DHT22;53422;49.296;6.900;2023-04-15T03:30:58;7.70;99.90
66568;DHT22;53422;49.296;6.900;2023-04-15T03:33:24;7.60;99.90
66568;DHT22;53422;49.296;6.900;2023-04-15T03:35:51;7.70;99.90
66568;DHT22;53422;49.296;6.900;2023-04-15T03:38:17;7.60;99.90
66568;DHT22;53422;49.296;6.900;2023-04-15T03:40:44;7.60;99.90
66568;DHT22;53422;49.296;6.900;2023-04-15T03:43:10;7.60;99.90
66568;DHT22;53422;49.296;6.900;2023-04-15T03:45:36;7.60;99.90
66568;DHT22;53422;49.296;6.900;2023-04-15T03:48:02;7.60;99.90
66568;DHT22;53422;49.296;6.900;2023-04-15T03:50:28;7.50;99.90
66568;DHT22;53422;49.296;6.900;2023-04-15T03:52:53;7.50;99.90
66568;DHT22;53422;49.296;6.900;2023-04-15T03:55:19;7.50;99.90
66568;DHT22;53422;49.296;6.900;2023-04-15T03:57:45;7.50;99.90
66568;DHT22;53422;49.296;6.900;2023-04-15T04:00:11;7.50;99.90
66568;DHT22;53422;49.296;6.900;2023-04-15T04:02:36;7.50;99.90
66568;DHT22;53422;49.296;6.900;2023-04-15T04:05:02;7.50;99.90
66568;DHT22;53422;49.296;6.900;2023-04-15T04:07:28;7.50;99.90
66568;DHT22;53422;49.296;6.900;2023-04-15T04:09:56;7.50;99.90
66568;DHT22;53422;49.296;6.900;2023-04-15T04:12:21;7.50;99.90
66568;DHT22;53422;49.296;6.900;2023-04-15T04:14:47;7.50;99.90
66568;DHT22;53422;49.296;6.900;2023-04-15T04:17:12;7.50;99.90
66568;DHT22;53422;49.296;6.900;2023-04-15T04:19:38;7.50;99.90
66568;DHT22;53422;49.296;6.900;2023-04-15T04:22:04;7.50;99.90
66568;DHT22;53422;49.296;6.900;2023-04-15T04:24:30;7.40;99.90
66568;DHT22;53422;49.296;6.900;2023-04-15T04:26:56;7.40;99.90
66568;DHT22;53422;49.296;6.900;2023-04-15T04:29:22;7.40;99.90
66568;DHT22;53422;49.296;6.900;2023-04-15T04:31:47;7.40;99.90
66568;DHT22;53422;49.296;6.900;2023-04-15T04:34:14;7.40;99.90
66568;DHT22;53422;49.296;6.900;2023-04-15T04:36:40;7.40;99.90
66568;DHT22;53422;49.296;6.900;2023-04-15T04:39:06;7.40;99.90
66568;DHT22;53422;49.296;6.900;2023-04-15T04:41:32;7.40;99.90
66568;DHT22;53422;49.296;6.900;2023-04-15T04:43:58;7.40;99.90
66568;DHT22;53422;49.296;6.900;2023-04-15T04:46:23;7.40;99.90
66568;DHT22;53422;49.296;6.900;2023-04-15T04:48:49;7.40;99.90
66568;DHT22;53422;49.296;6.900;2023-04-15T04:51:15;7.40;99.90
66568;DHT22;53422;49.296;6.900;2023-04-15T04:53:41;7.40;99.90
66568;DHT22;53422;49.296;6.900;2023-04-15T04:56:07;7.30;99.90
66568;DHT22;53422;49.296;6.900;2023-04-15T04:58:33;7.30;99.90
66568;DHT22;53422;49.296;6.900;2023-04-15T05:00:59;7.30;99.90
66568;DHT22;53422;49.296;6.900;2023-04-15T05:03:24;7.30;99.90
66568;DHT22;53422;49.296;6.900;2023-04-15T05:05:50;7.30;99.90
66568;DHT22;53422;49.296;6.900;2023-04-15T05:08:16;7.30;99.90
66568;DHT22;53422;49.296;6.900;2023-04-15T05:10:41;7.30;99.90
66568;DHT22;53422;49.296;6.900;2023-04-15T05:13:07;7.30;99.90
66568;DHT22;53422;49.296;6.900;2023-04-15T05:15:33;7.30;99.90
66568;DHT22;53422;49.296;6.900;2023-04-15T05:18:01;7.30;99.90
66568;DHT22;53422;49.296;6.900;2023-04-15T05:20:27;7.30;99.90
66568;DHT22;53422;49.296;6.900;2023-04-15T05:22:52;7.30;99.90
66568;DHT22;53422;49.296;6.900;2023-04-15T05:25:18;7.30;99.90
66568;DHT22;53422;49.296;6.900;2023-04-15T05:27:44;7.30;99.90
66568;DHT22;53422;49.296;6.900;2023-04-15T05:30:09;7.30;99.90
66568;DHT22;53422;49.296;6.900;2023-04-15T05:32:35;7.30;99.90
66568;DHT22;53422;49.296;6.900;2023-04-15T05:35:01;7.30;99.90
66568;DHT22;53422;49.296;6.900;2023-04-15T05:37:27;7.30;99.90
66568;DHT22;53422;49.296;6.900;2023-04-15T05:39:53;7.30;99.90
66568;DHT22;53422;49.296;6.900;2023-04-15T05:42:18;7.40;99.90
66568;DHT22;53422;49.296;6.900;2023-04-15T05:44:44;7.30;99.90
66568;DHT22;53422;49.296;6.900;2023-04-15T05:47:10;7.30;99.90
66568;DHT22;53422;49.296;6.900;2023-04-15T05:49:36;7.30;99.90
66568;DHT22;53422;49.296;6.900;2023-04-15T05:52:01;7.30;99.90
66568;DHT22;53422;49.296;6.900;2023-04-15T05:54:27;7.40;99.90
66568;DHT22;53422;49.296;6.900;2023-04-15T05:56:53;7.40;99.90
66568;DHT22;53422;49.296;6.900;2023-04-15T05:59:18;7.40;99.90
66568;DHT22;53422;49.296;6.900;2023-04-15T06:01:45;7.40;99.90
66568;DHT22;53422;49.296;6.900;2023-04-15T06:04:10;7.40;99.90
66568;DHT22;53422;49.296;6.900;2023-04-15T06:06:36;7.40;99.90
66568;DHT22;53422;49.296;6.900;2023-04-15T06:09:03;7.40;99.90
66568;DHT22;53422;49.296;6.900;2023-04-15T06:11:28;7.40;99.90
66568;DHT22;53422;49.296;6.900;2023-04-15T06:13:54;7.40;99.90
66568;DHT22;53422;49.296;6.900;2023-04-15T06:16:21;7.50;99.90
66568;DHT22;53422;49.296;6.900;2023-04-15T06:18:47;7.50;99.90
66568;DHT22;53422;49.296;6.900;2023-04-15T06:21:13;7.50;99.90
66568;DHT22;53422;49.296;6.900;2023-04-15T06:23:39;7.50;99.90
66568;DHT22;53422;49.296;6.900;2023-04-15T06:26:06;7.50;99.90
66568;DHT22;53422;49.296;6.900;2023-04-15T06:28:31;7.50;99.90
66568;DHT22;53422;49.296;6.900;2023-04-15T06:30:57;7.50;99.90
66568;DHT22;53422;49.296;6.900;2023-04-15T06:33:23;7.50;99.90
66568;DHT22;53422;49.296;6.900;2023-04-15T06:35:49;7.60;99.90
66568;DHT22;53422;49.296;6.900;2023-04-15T06:38:14;7.60;99.90
66568;DHT22;53422;49.296;6.900;2023-04-15T06:40:40;7.60;99.90
66568;DHT22;53422;49.296;6.900;2023-04-15T06:43:06;7.60;99.90
66568;DHT22;53422;49.296;6.900;2023-04-15T06:45:32;7.60;99.90
66568;DHT22;53422;49.296;6.900;2023-04-15T06:47:58;7.70;99.90
66568;DHT22;53422;49.296;6.900;2023-04-15T06:50:23;7.70;99.90
66568;DHT22;53422;49.296;6.900;2023-04-15T06:52:49;7.80;99.90
66568;DHT22;53422;49.296;6.900;2023-04-15T06:55:15;7.80;99.90
66568;DHT22;53422;49.296;6.900;2023-04-15T06:57:41;7.80;99.90
66568;DHT22;53422;49.296;6.900;2023-04-15T07:00:07;7.80;99.90
66568;DHT22;53422;49.296;6.900;2023-04-15T07:02:33;7.90;99.90
66568;DHT22;53422;49.296;6.900;2023-04-15T07:04:58;8.00;99.90
66568;DHT22;53422;49.296;6.900;2023-04-15T07:07:24;8.00;99.90
66568;DHT22;53422;49.296;6.900;2023-04-15T07:09:50;8.00;99.90
66568;DHT22;53422;49.296;6.900;2023-04-15T07:12:16;8.00;99.90
66568;DHT22;53422;49.296;6.900;2023-04-15T07:14:42;8.10;99.90
66568;DHT22;53422;49.296;6.900;2023-04-15T07:17:08;8.10;99.90
66568;DHT22;53422;49.296;6.900;2023-04-15T07:19:34;8.20;99.90
66568;DHT22;53422;49.296;6.900;2023-04-15T07:22:00;8.20;99.90
66568;DHT22;53422;49.296;6.900;2023-04-15T07:24:26;8.30;99.90
66568;DHT22;53422;49.296;6.900;2023-04-15T07:26:54;8.40;99.90
66568;DHT22;53422;49.296;6.900;2023-04-15T07:29:24;8.40;99.90
66568;DHT22;53422;49.296;6.900;2023-04-15T07:31:50;8.50;99.90
66568;DHT22;53422;49.296;6.900;2023-04-15T07:34:15;8.60;99.90
66568;DHT22;53422;49.296;6.900;2023-04-15T07:36:41;8.70;99.90
66568;DHT22;53422;49.296;6.900;2023-04-15T07:39:07;8.70;99.90
66568;DHT22;53422;49.296;6.900;2023-04-15T07:41:33;8.80;99.90
66568;DHT22;53422;49.296;6.900;2023-04-15T07:43:59;8.90;99.90
66568;DHT22;53422;49.296;6.900;2023-04-15T07:46:25;9.00;99.90
66568;DHT22;53422;49.296;6.900;2023-04-15T07:48:52;9.10;99.90
66568;DHT22;53422;49.296;6.900;2023-04-15T07:51:19;9.20;99.90
66568;DHT22;53422;49.296;6.900;2023-04-15T07:53:46;9.30;99.90
66568;DHT22;53422;49.296;6.900;2023-04-15T07:56:11;9.40;99.90
66568;DHT22;53422;49.296;6.900;2023-04-15T07:58:37;9.50;99.90
66568;DHT22;53422;49.296;6.900;2023-04-15T08:01:04;9.60;99.90
66568;DHT22;53422;49.296;6.900;2023-04-15T08:03:29;9.70;99.90
66568;DHT22;53422;49.296;6.900;2023-04-15T08:05:56;9.80;99.90
66568;DHT22;53422;49.296;6.900;2023-04-15T08:08:21;9.90;99.90
66568;DHT22;53422;49.296;6.900;2023-04-15T08:10:47;10.20;99.90
66568;DHT22;53422;49.296;6.900;2023-04-15T08:13:13;10.20;99.90
66568;DHT22;53422;49.296;6.900;2023-04-15T08:15:38;10.30;99.90
66568;DHT22;53422;49.296;6.900;2023-04-15T08:18:04;10.40;99.90
66568;DHT22;53422;49.296;6.900;2023-04-15T08:20:29;10.50;99.90
66568;DHT22;53422;49.296;6.900;2023-04-15T08:22:55;10.60;99.90
66568;DHT22;53422;49.296;6.900;2023-04-15T08:25:21;10.80;99.90
66568;DHT22;53422;49.296;6.900;2023-04-15T08:27:47;11.00;99.20
66568;DHT22;53422;49.296;6.900;2023-04-15T08:30:13;11.10;99.90
66568;DHT22;53422;49.296;6.900;2023-04-15T08:32:42;11.20;99.00
66568;DHT22;53422;49.296;6.900;2023-04-15T08:35:11;11.20;99.90
66568;DHT22;53422;49.296;6.900;2023-04-15T08:37:37;11.50;99.20
66568;DHT22;53422;49.296;6.900;2023-04-15T08:40:03;11.60;93.80
66568;DHT22;53422;49.296;6.900;2023-04-15T08:42:40;11.70;93.50
66568;DHT22;53422;49.296;6.900;2023-04-15T08:45:08;11.80;99.50
66568;DHT22;53422;49.296;6.900;2023-04-15T08:47:37;11.80;99.70
66568;DHT22;53422;49.296;6.900;2023-04-15T08:50:05;11.90;97.60
66568;DHT22;53422;49.296;6.900;2023-04-15T08:52:33;11.90;96.30
66568;DHT22;53422;49.296;6.900;2023-04-15T08:55:01;12.00;96.00
66568;DHT22;53422;49.296;6.900;2023-04-15T08:57:28;12.10;98.60
66568;DHT22;53422;49.296;6.900;2023-04-15T08:59:57;12.30;99.00
66568;DHT22;53422;49.296;6.900;2023-04-15T09:02:23;12.20;98.90
66568;DHT22;53422;49.296;6.900;2023-04-15T09:04:50;12.30;97.50
66568;DHT22;53422;49.296;6.900;2023-04-15T09:07:16;12.30;92.40
66568;DHT22;53422;49.296;6.900;2023-04-15T09:09:43;12.70;73.90
66568;DHT22;53422;49.296;6.900;2023-04-15T09:12:21;13.00;75.30
66568;DHT22;53422;49.296;6.900;2023-04-15T09:14:49;12.90;66.40
66568;DHT22;53422;49.296;6.900;2023-04-15T09:17:24;12.80;67.10
66568;DHT22;53422;49.296;6.900;2023-04-15T09:20:13;12.70;64.00
66568;DHT22;53422;49.296;6.900;2023-04-15T09:22:40;13.00;59.70
66568;DHT22;53422;49.296;6.900;2023-04-15T09:25:29;13.10;63.90
66568;DHT22;53422;49.296;6.900;2023-04-15T09:28:00;13.30;63.00
66568;DHT22;53422;49.296;6.900;2023-04-15T09:30:27;13.30;62.60
66568;DHT22;53422;49.296;6.900;2023-04-15T09:32:58;13.20;61.00
66568;DHT22;53422;49.296;6.900;2023-04-15T09:35:25;13.40;57.30
66568;DHT22;53422;49.296;6.900;2023-04-15T09:37:52;13.30;57.90
66568;DHT22;53422;49.296;6.900;2023-04-15T09:40:35;13.40;56.60
66568;DHT22;53422;49.296;6.900;2023-04-15T09:43:02;13.40;54.70
66568;DHT22;53422;49.296;6.900;2023-04-15T09:45:29;13.40;54.40
66568;DHT22;53422;49.296;6.900;2023-04-15T09:47:57;13.20;53.80
66568;DHT22;53422;49.296;6.900;2023-04-15T09:50:26;13.20;55.50
66568;DHT22;53422;49.296;6.900;2023-04-15T09:52:54;13.50;52.40
66568;DHT22;53422;49.296;6.900;2023-04-15T09:55:20;13.50;51.30
66568;DHT22;53422;49.296;6.900;2023-04-15T09:57:46;13.50;51.30
66568;DHT22;53422;49.296;6.900;2023-04-15T10:00:19;13.60;52.60
66568;DHT22;53422;49.296;6.900;2023-04-15T10:02:46;13.70;54.10
66568;DHT22;53422;49.296;6.900;2023-04-15T10:05:16;13.60;56.10
66568;DHT22;53422;49.296;6.900;2023-04-15T10:07:42;13.70;54.20
66568;DHT22;53422;49.296;6.900;2023-04-15T10:10:09;13.70;51.30
66568;DHT22;53422;49.296;6.900;2023-04-15T10:12:36;13.90;53.50
66568;DHT22;53422;49.296;6.900;2023-04-15T10:15:04;13.90;51.50
66568;DHT22;53422;49.296;6.900;2023-04-15T10:17:32;14.10;50.00
66568;DHT22;53422;49.296;6.900;2023-04-15T10:20:03;14.30;48.60
66568;DHT22;53422;49.296;6.900;2023-04-15T10:22:30;14.30;48.80
66568;DHT22;53422;49.296;6.900;2023-04-15T10:24:57;14.40;47.70
66568;DHT22;53422;49.296;6.900;2023-04-15T10:27:24;14.40;49.30
66568;DHT22;53422;49.296;6.900;2023-04-15T10:29:51;14.40;48.30
66568;DHT22;53422;49.296;6.900;2023-04-15T10:32:19;14.40;47.60
66568;DHT22;53422;49.296;6.900;2023-04-15T10:34:46;14.40;48.30
66568;DHT22;53422;49.296;6.900;2023-04-15T10:37:32;14.40;47.00
66568;DHT22;53422;49.296;6.900;2023-04-15T10:39:58;14.40;47.50
66568;DHT22;53422;49.296;6.900;2023-04-15T10:42:23;14.50;48.80
66568;DHT22;53422;49.296;6.900;2023-04-15T10:44:50;14.70;48.60
66568;DHT22;53422;49.296;6.900;2023-04-15T10:47:18;14.60;47.60
66568;DHT22;53422;49.296;6.900;2023-04-15T10:49:56;14.70;47.40
66568;DHT22;53422;49.296;6.900;2023-04-15T10:52:24;14.60;48.30
66568;DHT22;53422;49.296;6.900;2023-04-15T10:54:53;14.70;49.50
66568;DHT22;53422;49.296;6.900;2023-04-15T10:57:34;14.80;47.80
66568;DHT22;53422;49.296;6.900;2023-04-15T11:00:10;15.00;46.50
66568;DHT22;53422;49.296;6.900;2023-04-15T11:05:05;14.90;47.70
66568;DHT22;53422;49.296;6.900;2023-04-15T11:13:14;14.80;46.30
66568;DHT22;53422;49.296;6.900;2023-04-15T11:15:43;14.90;45.90
66568;DHT22;53422;49.296;6.900;2023-04-15T11:18:21;15.10;46.40
66568;DHT22;53422;49.296;6.900;2023-04-15T11:20:50;15.00;45.40
66568;DHT22;53422;49.296;6.900;2023-04-15T11:23:26;15.00;46.70
66568;DHT22;53422;49.296;6.900;2023-04-15T11:25:54;14.90;45.00
66568;DHT22;53422;49.296;6.900;2023-04-15T11:28:20;14.80;45.10
66568;DHT22;53422;49.296;6.900;2023-04-15T11:30:45;14.80;45.30
66568;DHT22;53422;49.296;6.900;2023-04-15T11:33:11;14.70;46.00
66568;DHT22;53422;49.296;6.900;2023-04-15T11:35:40;14.70;47.10
66568;DHT22;53422;49.296;6.900;2023-04-15T11:38:09;14.70;46.60
66568;DHT22;53422;49.296;6.900;2023-04-15T11:40:37;14.70;47.00
66568;DHT22;53422;49.296;6.900;2023-04-15T11:43:16;14.80;46.10
66568;DHT22;53422;49.296;6.900;2023-04-15T11:48:18;14.70;43.90
66568;DHT22;53422;49.296;6.900;2023-04-15T11:50:44;14.80;46.10
66568;DHT22;53422;49.296;6.900;2023-04-15T11:53:12;14.90;45.50
66568;DHT22;53422;49.296;6.900;2023-04-15T12:00:40;15.20;44.30
66568;DHT22;53422;49.296;6.900;2023-04-15T12:06:06;15.10;44.90
66568;DHT22;53422;49.296;6.900;2023-04-15T12:11:16;15.00;43.30
66568;DHT22;53422;49.296;6.900;2023-04-15T12:13:49;15.00;45.50
66568;DHT22;53422;49.296;6.900;2023-04-15T12:16:19;15.10;43.50
66568;DHT22;53422;49.296;6.900;2023-04-15T12:18:46;15.00;43.90
66568;DHT22;53422;49.296;6.900;2023-04-15T12:21:15;14.90;42.70
66568;DHT22;53422;49.296;6.900;2023-04-15T12:23:48;15.10;45.70
66568;DHT22;53422;49.296;6.900;2023-04-15T12:26:41;15.20;44.50
66568;DHT22;53422;49.296;6.900;2023-04-15T12:29:07;15.20;42.20
66568;DHT22;53422;49.296;6.900;2023-04-15T12:31:34;15.10;42.60
66568;DHT22;53422;49.296;6.900;2023-04-15T12:34:01;15.20;41.90
66568;DHT22;53422;49.296;6.900;2023-04-15T12:36:28;15.10;41.60
66568;DHT22;53422;49.296;6.900;2023-04-15T12:38:56;15.10;42.70
66568;DHT22;53422;49.296;6.900;2023-04-15T12:41:22;15.10;43.10
66568;DHT22;53422;49.296;6.900;2023-04-15T12:43:49;15.20;44.10
66568;DHT22;53422;49.296;6.900;2023-04-15T12:46:15;15.10;43.60
66568;DHT22;53422;49.296;6.900;2023-04-15T12:48:41;15.20;43.80
66568;DHT22;53422;49.296;6.900;2023-04-15T12:51:06;15.20;43.70
66568;DHT22;53422;49.296;6.900;2023-04-15T12:53:32;15.30;44.00
66568;DHT22;53422;49.296;6.900;2023-04-15T12:55:58;15.30;44.70
66568;DHT22;53422;49.296;6.900;2023-04-15T12:58:24;15.50;44.70
66568;DHT22;53422;49.296;6.900;2023-04-15T13:00:49;15.50;45.60
66568;DHT22;53422;49.296;6.900;2023-04-15T13:03:15;15.50;46.00
66568;DHT22;53422;49.296;6.900;2023-04-15T13:05:41;15.60;45.70
66568;DHT22;53422;49.296;6.900;2023-04-15T13:08:07;15.70;46.20
66568;DHT22;53422;49.296;6.900;2023-04-15T13:10:34;15.60;47.40
66568;DHT22;53422;49.296;6.900;2023-04-15T13:13:03;15.90;48.10
66568;DHT22;53422;49.296;6.900;2023-04-15T13:15:29;16.00;47.70
66568;DHT22;53422;49.296;6.900;2023-04-15T13:17:55;15.50;46.80
66568;DHT22;53422;49.296;6.900;2023-04-15T13:20:21;15.70;47.00
66568;DHT22;53422;49.296;6.900;2023-04-15T13:22:46;15.60;44.70
66568;DHT22;53422;49.296;6.900;2023-04-15T13:25:12;15.60;43.70
66568;DHT22;53422;49.296;6.900;2023-04-15T13:27:38;15.70;44.10
66568;DHT22;53422;49.296;6.900;2023-04-15T13:30:04;15.50;43.50
66568;DHT22;53422;49.296;6.900;2023-04-15T13:32:30;15.60;43.20
66568;DHT22;53422;49.296;6.900;2023-04-15T13:34:56;15.70;43.40
66568;DHT22;53422;49.296;6.900;2023-04-15T13:37:29;15.50;43.50
66568;DHT22;53422;49.296;6.900;2023-04-15T13:39:55;15.50;43.20
66568;DHT22;53422;49.296;6.900;2023-04-15T13:42:21;15.30;43.20
66568;DHT22;53422;49.296;6.900;2023-04-15T13:44:49;15.30;44.30
66568;DHT22;53422;49.296;6.900;2023-04-15T13:47:16;15.30;45.00
66568;DHT22;53422;49.296;6.900;2023-04-15T13:49:42;15.20;44.70
66568;DHT22;53422;49.296;6.900;2023-04-15T13:52:08;15.20;44.60
66568;DHT22;53422;49.296;6.900;2023-04-15T13:54:33;15.10;44.40
66568;DHT22;53422;49.296;6.900;2023-04-15T13:56:59;15.20;43.70
66568;DHT22;53422;49.296;6.900;2023-04-15T13:59:26;15.10;44.10
66568;DHT22;53422;49.296;6.900;2023-04-15T14:01:52;15.10;43.00
66568;DHT22;53422;49.296;6.900;2023-04-15T14:04:17;15.00;42.90
66568;DHT22;53422;49.296;6.900;2023-04-15T14:06:43;15.00;43.80
66568;DHT22;53422;49.296;6.900;2023-04-15T14:09:09;15.00;42.50
66568;DHT22;53422;49.296;6.900;2023-04-15T14:11:36;14.90;43.10
66568;DHT22;53422;49.296;6.900;2023-04-15T14:14:02;14.90;42.90
66568;DHT22;53422;49.296;6.900;2023-04-15T14:16:28;14.90;43.20
66568;DHT22;53422;49.296;6.900;2023-04-15T14:18:53;14.80;42.50
66568;DHT22;53422;49.296;6.900;2023-04-15T14:21:19;14.80;43.10
66568;DHT22;53422;49.296;6.900;2023-04-15T14:23:45;14.80;44.20
66568;DHT22;53422;49.296;6.900;2023-04-15T14:26:11;14.80;44.10
66568;DHT22;53422;49.296;6.900;2023-04-15T14:28:36;14.80;43.90
66568;DHT22;53422;49.296;6.900;2023-04-15T14:31:03;14.70;43.50
66568;DHT22;53422;49.296;6.900;2023-04-15T14:33:29;14.70;44.20
66568;DHT22;53422;49.296;6.900;2023-04-15T14:35:54;14.70;44.40
66568;DHT22;53422;49.296;6.900;2023-04-15T14:38:20;14.70;44.20
66568;DHT22;53422;49.296;6.900;2023-04-15T14:40:47;14.80;44.30
66568;DHT22;53422;49.296;6.900;2023-04-15T14:43:13;14.70;43.90
66568;DHT22;53422;49.296;6.900;2023-04-15T14:45:38;14.70;44.40
66568;DHT22;53422;49.296;6.900;2023-04-15T14:48:04;14.70;44.80
66568;DHT22;53422;49.296;6.900;2023-04-15T14:50:34;14.70;45.90
66568;DHT22;53422;49.296;6.900;2023-04-15T14:53:00;14.70;46.20
66568;DHT22;53422;49.296;6.900;2023-04-15T14:55:26;14.80;46.40
66568;DHT22;53422;49.296;6.900;2023-04-15T14:57:51;14.70;46.70
66568;DHT22;53422;49.296;6.900;2023-04-15T15:00:17;14.80;47.50
66568;DHT22;53422;49.296;6.900;2023-04-15T15:02:43;14.70;47.00
66568;DHT22;53422;49.296;6.900;2023-04-15T15:05:09;14.80;46.90
66568;DHT22;53422;49.296;6.900;2023-04-15T15:07:38;14.70;47.30
66568;DHT22;53422;49.296;6.900;2023-04-15T15:10:05;14.70;47.70
66568;DHT22;53422;49.296;6.900;2023-04-15T15:12:32;14.70;47.70
66568;DHT22;53422;49.296;6.900;2023-04-15T15:14:57;14.70;47.40
66568;DHT22;53422;49.296;6.900;2023-04-15T15:17:23;14.70;48.00
66568;DHT22;53422;49.296;6.900;2023-04-15T15:19:49;14.70;48.10
66568;DHT22;53422;49.296;6.900;2023-04-15T15:22:15;14.70;47.70
66568;DHT22;53422;49.296;6.900;2023-04-15T15:24:41;14.70;48.30
66568;DHT22;53422;49.296;6.900;2023-04-15T15:27:06;14.70;48.10
66568;DHT22;53422;49.296;6.900;2023-04-15T15:29:32;14.60;47.90
66568;DHT22;53422;49.296;6.900;2023-04-15T15:31:58;14.60;48.10
66568;DHT22;53422;49.296;6.900;2023-04-15T15:34:23;14.60;48.30
66568;DHT22;53422;49.296;6.900;2023-04-15T15:36:49;14.60;48.30
66568;DHT22;53422;49.296;6.900;2023-04-15T15:39:15;14.60;48.50
66568;DHT22;53422;49.296;6.900;2023-04-15T15:41:40;14.60;48.60
66568;DHT22;53422;49.296;6.900;2023-04-15T15:44:06;14.50;48.30
66568;DHT22;53422;49.296;6.900;2023-04-15T15:46:32;14.50;48.60
66568;DHT22;53422;49.296;6.900;2023-04-15T15:48:58;14.50;48.30
66568;DHT22;53422;49.296;6.900;2023-04-15T15:51:23;14.60;48.90
66568;DHT22;53422;49.296;6.900;2023-04-15T15:53:51;14.50;48.80
66568;DHT22;53422;49.296;6.900;2023-04-15T15:56:16;14.60;48.80
66568;DHT22;53422;49.296;6.900;2023-04-15T15:58:42;14.60;49.50